Angus, Canada
Current Conditions -  °F | °C
As of 11:00 AM on Sunday 25 Jan 2015 (Local Time) from CYBN Reporting Station
Clear Clear  
Wind Chill: -2°   Ceiling: Unl
Heat Index:   Visibility: 9mi
Dew Point: -8°   Wind: 5mph
Humidity: 52%   Direction: 340°NNW
Pressure: 29.96"   Gusts: NA
Location:  44.32°N, 79.88°W
Report Text: CYBN 251600Z AUTO 34004KT 280V030 9SM CLR M14/M22 A2996 RMKSLP159
Loading
Personal Weather Stations






























Interactive Weather Map New forecast layout! Learn more

10-Day Weather Forecast

Advertisements
Track Severe Weather on mobile